St-Mathieu-De-Beloeil Airport

METAR CYHU TAF CYHU
-10 °C
°C
-
°C
17m
Leeftijd
17:17:09
LT
16:17
UTC
0 ft

1.000

2.000

3.000

4.000

5.000

VV 1.100
LIFR
<?= Yii::t('app', 'Wind direction') ?> <?= Yii::t('app', 'of'); ?>
030°
16:55
Zonsondergang
85%
Luchtvochtigheid
Windschering
Gesloten/sneeuw
Baanzicht
Baanconditie
Verticaal zicht
Min. zicht
CAVOK
Trend
Correctie
Speciaal rapport
30,13 inHg
QNH
METAR CYHU 291600Z AUTO 03012G19KT 5/8SM R24R/3000FT/N -SN VV011 M10/M12 A3013 RMK PCPN 0.5MM PAST HR SLP208
Lichte sneeuw
10 kt
10 kt
11:00
LIFR
18 kt
12:00
LIFR
18 kt
13:00
LIFR
15 kt
14:00
LIFR
15 kt
15:00
LIFR
15 kt
16:00
LIFR
15 kt
17:00
LIFR
15 kt
⅝ mi
Zicht
1.100 ft
Plafond
12-19 kt
Wind
metar-taf.com/CSB3

Metar-Taf.com

Visuele decoder

Wij en derden volgen je internetgedrag op onze website met cookies. Als je doorgaat, gaan we ervan uit dat je akkoord gaat met onze cookiebeleid.